METAR Data
IDs: Format: Raw Decoded Include TAF

Data at: 0344 UTC 24 Jun 2021

METAR for:KLHQ (Lancaster/Fairfield, OH, US)
Text:KLHQ 240253Z AUTO 00000KT 10SM CLR 16/12 A3020 RMK AO2 SLP223 T01560117 53001
Temperature: 15.6°C ( 60°F)
Dewpoint: 11.7°C ( 53°F) [RH = 78%]
Pressure (altimeter):30.20 inches Hg (1022.8 mb) [Sea level pressure: 1022.3 mb]
Winds:calm
Visibility:10 or more sm (16+ km)
Ceiling:at least 12,000 feet AGL
Clouds:sky clear below 12,000 feet AGL
QC Flag:automated observation with no human augmentation